Time;durP1;ratioP1;P1;durP2;ratioP2;P2;SDS_P1;SDS_P2;PMS_P1;PMS_P2;Temp;Humidity;BMP_temperature;BMP_pressure;BME280_temperature;BME280_humidity;BME280_pressure;Samples;Min_cycle;Max_cycle;Signal;HPM_P1;HPM_P2
2021/09/25 12:22:10;;;;;;;;;20.00;17.00;;;;;28.09;40.25;101048.75;6176355;22;44882;-88
2021/09/25 12:35:46;;;;;;;;;;;;;;;;;;;;;
2021/09/25 12:42:46;;;;;;;;;14.67;14.00;;;;;29.53;37.62;101017.16;6115181;22;45180;-89
2021/09/25 12:45:54;;;;;;;;;19.67;14.00;;;;;29.91;36.97;101019.53;6290842;22;45149;-89
2021/09/25 12:49:36;;;;;;;;;;;;;;;;;;;;;
2021/09/25 12:52:39;;;;;;;;;;;;;;;;;;;;;
2021/09/25 12:58:35;;;;;;;;;;;;;;;;;;;;;
2021/09/25 13:01:04;;;;;;;;;17.25;16.25;;;;;31.31;33.95;100992.41;6280957;22;72967;-89
2021/09/25 13:03:47;;;;;;;;;16.00;16.00;;;;;31.39;34.19;100992.63;6252232;22;45371;-89
2021/09/25 13:06:33;;;;;;;;;13.75;13.25;;;;;31.39;34.08;100983.63;6281396;22;45493;-88
2021/09/25 13:12:47;;;;;;;;;13.75;13.75;;;;;31.40;33.45;100990.78;6158366;23;46306;-89
2021/09/25 13:15:46;;;;;;;;;;;;;;;;;;;;;
2021/09/25 13:19:02;;;;;;;;;;;;;;;;;;;;;
2021/09/25 13:25:52;;;;;;;;;;;;;;;;;;;;;
2021/09/25 13:29:14;;;;;;;;;;;;;;;;;;;;;
2021/09/25 13:43:20;;;;;;;;;;;;;;;;;;;;;
2021/09/25 13:53:28;;;;;;;;;;;;;;;;;;;;;
2021/09/25 13:59:53;;;;;;;;;12.75;11.75;;;;;35.16;27.81;100973.09;6024805;23;45387;-89
2021/09/25 14:03:21;;;;;;;;;;;;;;;;;;;;;
2021/09/25 14:10:04;;;;;;;;;;;;;;;;;;;;;
2021/09/25 14:13:05;;;;;;;;;;;;;;;;;;;;;
2021/09/25 14:15:52;;;;;;;;;13.25;11.75;;;;;31.79;30.76;100963.75;6008946;23;75035;-89
2021/09/25 14:19:03;;;;;;;;;10.50;10.25;;;;;31.24;31.19;100958.56;6044791;23;44779;-90
2021/09/25 14:32:47;;;;;;;;;;;;;;;;;;;;;
2021/09/25 14:35:58;;;;;;;;;11.25;10.25;;;;;29.21;34.67;100955.44;6094746;23;68806;-90
2021/09/25 14:55:50;;;;;;;;;;;;;;;;;;;;;
2021/09/25 14:59:29;;;;;;;;;;;;;;;;;;;;;
2021/09/25 15:06:18;;;;;;;;;18.00;16.50;;;;;26.83;38.15;100943.94;6067386;23;45691;-90
2021/09/25 15:08:47;;;;;;;;;9.00;9.00;;;;;26.73;38.07;100940.19;6057062;23;46926;-89
2021/09/25 15:11:12;;;;;;;;;12.25;11.25;;;;;26.67;38.44;100939.72;6162306;23;45308;-90
2021/09/25 15:13:46;;;;;;;;;15.25;13.00;;;;;26.63;38.60;100938.22;6196931;22;45170;-90
2021/09/25 15:16:33;;;;;;;;;15.50;13.50;;;;;26.52;39.02;100929.00;6258220;22;45494;-89
2021/09/25 15:19:13;;;;;;;;;;;;;;;;;;;;;
2021/09/25 15:21:41;;;;;;;;;16.75;14.75;;;;;26.51;39.33;100932.63;6281205;22;72327;-90
2021/09/25 15:24:13;;;;;;;;;20.00;19.00;;;;;26.54;39.00;100940.56;6283482;22;45307;-90
2021/09/25 15:26:41;;;;;;;;;12.75;11.50;;;;;26.44;39.26;100925.91;6253160;22;45332;-89
2021/09/25 15:29:34;;;;;;;;;15.75;15.25;;;;;26.42;39.10;100935.09;6254305;22;47183;-91
2021/09/25 15:32:14;;;;;;;;;20.50;20.50;;;;;26.28;39.42;100925.22;6279114;22;45330;-90
2021/09/25 15:34:41;;;;;;;;;19.50;19.00;;;;;26.24;39.72;100929.06;6282031;22;45130;-89
2021/09/25 15:37:10;;;;;;;;;17.75;17.50;;;;;26.13;39.91;100929.78;6255033;22;45137;-89
2021/09/25 15:39:44;;;;;;;;;16.00;16.00;;;;;26.05;39.95;100918.63;6252867;22;46917;-90
2021/09/25 15:42:26;;;;;;;;;;;;;;;;;;;;;
2021/09/25 15:45:17;;;;;;;;;;;;;;;;;;;;;
2021/09/25 15:48:05;;;;;;;;;17.75;15.50;;;;;25.86;40.29;100921.66;6281033;22;72221;-90
2021/09/25 15:50:41;;;;;;;;;18.50;16.25;;;;;25.92;40.36;100943.69;6251979;22;46700;-90
2021/09/25 15:53:20;;;;;;;;;18.75;17.25;;;;;25.87;40.67;100932.34;6255014;22;45180;-90
2021/09/25 15:56:18;;;;;;;;;;;;;;;;;;;;;
2021/09/25 15:58:56;;;;;;;;;14.00;14.00;;;;;25.71;41.04;100926.16;6279673;22;71829;-90
2021/09/25 16:01:31;;;;;;;;;16.00;14.25;;;;;25.61;41.33;100928.63;6251248;22;45349;-89
2021/09/25 16:04:10;;;;;;;;;14.33;13.00;;;;;25.63;41.26;100945.53;6253139;22;45137;-89
2021/09/25 16:06:45;;;;;;;;;14.25;12.75;;;;;25.62;41.17;100940.25;6254079;22;45392;-89
2021/09/25 16:11:59;;;;;;;;;13.33;13.33;;;;;25.55;41.55;100945.16;6283002;22;45620;-90
2021/09/25 16:14:34;;;;;;;;;14.00;14.00;;;;;25.53;41.06;100950.66;6253665;22;45572;-90
2021/09/25 16:17:00;;;;;;;;;13.50;13.25;;;;;25.48;41.00;100938.44;6254687;22;45256;-90
2021/09/25 16:19:29;;;;;;;;;15.50;15.25;;;;;25.47;41.32;100947.47;6252743;22;45482;-90
2021/09/25 16:22:00;;;;;;;;;17.00;16.00;;;;;25.42;41.39;100941.50;6254700;22;47868;-90
2021/09/25 16:24:39;;;;;;;;;15.75;15.75;;;;;25.40;41.57;100948.84;6273965;22;45497;-90
2021/09/25 16:27:04;;;;;;;;;16.00;14.25;;;;;25.37;41.63;100949.00;6256672;22;45132;-90
2021/09/25 16:29:53;;;;;;;;;20.50;16.75;;;;;25.27;41.44;100938.81;6251803;22;45400;-90
2021/09/25 16:32:21;;;;;;;;;16.50;14.75;;;;;25.24;42.08;100951.63;6256476;22;46880;-90
2021/09/25 16:35:00;;;;;;;;;;;;;;;;;;;;;
2021/09/25 16:37:28;;;;;;;;;16.25;16.25;;;;;25.16;42.08;100957.47;6282077;22;67683;-89
2021/09/25 16:39:56;;;;;;;;;18.25;15.25;;;;;25.12;42.38;100960.41;6255656;22;45149;-89
2021/09/25 16:42:25;;;;;;;;;14.75;13.50;;;;;25.06;42.54;100956.28;6254161;22;47966;-90
2021/09/25 16:44:51;;;;;;;;;24.75;20.75;;;;;25.03;43.14;100959.16;6283643;22;45390;-90
2021/09/25 16:47:20;;;;;;;;;18.50;18.00;;;;;24.97;42.95;100954.16;6256177;22;45318;-90
2021/09/25 16:49:54;;;;;;;;;16.00;15.00;;;;;24.96;43.54;100960.47;6281848;22;45130;-89
2021/09/25 16:52:20;;;;;;;;;19.25;17.50;;;;;24.91;43.19;100958.06;6253647;22;47976;-90
2021/09/25 16:55:00;;;;;;;;;17.00;15.00;;;;;24.86;43.12;100944.03;6252787;22;45704;-90
2021/09/25 16:57:26;;;;;;;;;21.00;19.50;;;;;24.80;43.05;100939.84;6255956;22;45385;-89
2021/09/25 17:00:15;;;;;;;;;18.00;16.00;;;;;24.84;43.08;100949.50;6279712;22;45302;-90
2021/09/25 17:02:41;;;;;;;;;15.00;14.67;;;;;24.83;43.70;100955.84;6254730;22;46709;-90
2021/09/25 17:05:45;;;;;;;;;24.50;17.50;;;;;24.82;43.68;100950.53;6251799;22;45222;-89
2021/09/25 21:32:57;;;;;;;;;17.67;17.33;;;;;21.40;61.27;101032.69;6215481;22;46890;31
